sensor_id;sensor_type;location;lat;lon;timestamp;pressure;altitude;pressure_sealevel;temperature;humidity
30708;BME280;17458;48.958;8.284;2023-02-23T00:02:29;100058.53;;;14.12;71.61
30708;BME280;17458;48.958;8.284;2023-02-23T00:05:13;100046.19;;;14.16;71.54
30708;BME280;17458;48.958;8.284;2023-02-23T00:07:58;100056.78;;;14.13;71.82
30708;BME280;17458;48.958;8.284;2023-02-23T00:10:42;100053.00;;;14.06;72.17
30708;BME280;17458;48.958;8.284;2023-02-23T00:13:27;100052.34;;;14.13;72.04
30708;BME280;17458;48.958;8.284;2023-02-23T00:16:13;100050.38;;;14.08;72.10
30708;BME280;17458;48.958;8.284;2023-02-23T00:19:01;100050.75;;;14.20;71.86
30708;BME280;17458;48.958;8.284;2023-02-23T00:21:45;100050.09;;;13.99;72.51
30708;BME280;17458;48.958;8.284;2023-02-23T00:24:29;100050.91;;;13.96;72.71
30708;BME280;17458;48.958;8.284;2023-02-23T00:27:14;100046.53;;;13.98;72.72
30708;BME280;17458;48.958;8.284;2023-02-23T00:30:02;100048.44;;;14.02;73.04
30708;BME280;17458;48.958;8.284;2023-02-23T00:32:46;100044.00;;;14.03;72.98
30708;BME280;17458;48.958;8.284;2023-02-23T00:35:32;100042.25;;;14.03;72.87
30708;BME280;17458;48.958;8.284;2023-02-23T00:38:16;100045.69;;;13.99;73.10
30708;BME280;17458;48.958;8.284;2023-02-23T00:41:08;100041.50;;;14.09;73.00
30708;BME280;17458;48.958;8.284;2023-02-23T00:43:58;100044.38;;;14.15;72.77
30708;BME280;17458;48.958;8.284;2023-02-23T00:46:44;100042.41;;;14.09;72.81
30708;BME280;17458;48.958;8.284;2023-02-23T00:49:32;100036.03;;;14.04;72.85
30708;BME280;17458;48.958;8.284;2023-02-23T00:52:19;100043.91;;;14.00;73.43
30708;BME280;17458;48.958;8.284;2023-02-23T00:55:05;100042.47;;;14.11;72.96
30708;BME280;17458;48.958;8.284;2023-02-23T00:57:50;100042.31;;;14.06;73.07
30708;BME280;17458;48.958;8.284;2023-02-23T01:00:35;100032.75;;;14.13;72.83
30708;BME280;17458;48.958;8.284;2023-02-23T01:03:26;100037.06;;;14.09;73.15
30708;BME280;17458;48.958;8.284;2023-02-23T01:06:13;100038.69;;;14.03;73.42
30708;BME280;17458;48.958;8.284;2023-02-23T01:08:58;100036.03;;;14.04;73.24
30708;BME280;17458;48.958;8.284;2023-02-23T01:11:42;100029.22;;;14.14;72.98
30708;BME280;17458;48.958;8.284;2023-02-23T01:14:32;100034.41;;;14.09;73.30
30708;BME280;17458;48.958;8.284;2023-02-23T01:17:16;100036.31;;;14.13;72.98
30708;BME280;17458;48.958;8.284;2023-02-23T01:20:00;100034.47;;;14.11;72.87
30708;BME280;17458;48.958;8.284;2023-02-23T01:22:49;100038.63;;;14.01;73.35
30708;BME280;17458;48.958;8.284;2023-02-23T01:25:34;100027.25;;;14.08;73.00
30708;BME280;17458;48.958;8.284;2023-02-23T01:28:18;100030.41;;;13.95;73.36
30708;BME280;17458;48.958;8.284;2023-02-23T01:31:07;100037.59;;;13.98;73.79
30708;BME280;17458;48.958;8.284;2023-02-23T01:33:55;100035.91;;;14.00;73.71
30708;BME280;17458;48.958;8.284;2023-02-23T01:36:42;100027.09;;;14.02;73.40
30708;BME280;17458;48.958;8.284;2023-02-23T01:39:31;100032.84;;;14.16;73.45
30708;BME280;17458;48.958;8.284;2023-02-23T01:42:15;100026.19;;;14.02;73.37
30708;BME280;17458;48.958;8.284;2023-02-23T01:45:26;100034.56;;;14.14;73.34
30708;BME280;17458;48.958;8.284;2023-02-23T01:48:14;100031.25;;;13.94;73.89
30708;BME280;17458;48.958;8.284;2023-02-23T01:51:12;100019.25;;;14.08;73.49
30708;BME280;17458;48.958;8.284;2023-02-23T01:54:12;100021.06;;;14.09;73.50
30708;BME280;17458;48.958;8.284;2023-02-23T01:57:02;100026.94;;;13.98;73.61
30708;BME280;17458;48.958;8.284;2023-02-23T01:59:48;100024.22;;;13.96;73.53
30708;BME280;17458;48.958;8.284;2023-02-23T02:02:32;100031.47;;;14.00;73.41
30708;BME280;17458;48.958;8.284;2023-02-23T02:05:17;100023.47;;;14.00;73.68
30708;BME280;17458;48.958;8.284;2023-02-23T02:08:07;100028.75;;;13.99;73.40
30708;BME280;17458;48.958;8.284;2023-02-23T02:10:54;100025.06;;;13.95;73.68
30708;BME280;17458;48.958;8.284;2023-02-23T02:13:39;100024.25;;;13.98;73.68
30708;BME280;17458;48.958;8.284;2023-02-23T02:35:46;100017.16;;;13.98;73.19
30708;BME280;17458;48.958;8.284;2023-02-23T02:38:59;100011.97;;;14.03;72.74
30708;BME280;17458;48.958;8.284;2023-02-23T02:50:51;100013.97;;;13.81;74.53
30708;BME280;17458;48.958;8.284;2023-02-23T02:56:42;100014.72;;;13.77;74.50
30708;BME280;17458;48.958;8.284;2023-02-23T02:59:30;100012.88;;;13.75;75.18
30708;BME280;17458;48.958;8.284;2023-02-23T03:02:36;100011.00;;;13.72;75.48
30708;BME280;17458;48.958;8.284;2023-02-23T03:05:45;100005.69;;;13.72;75.15
30708;BME280;17458;48.958;8.284;2023-02-23T03:09:01;100015.97;;;13.89;74.63
30708;BME280;17458;48.958;8.284;2023-02-23T03:19:19;100003.56;;;13.62;75.80
30708;BME280;17458;48.958;8.284;2023-02-23T03:22:28;99998.94;;;13.57;76.13
30708;BME280;17458;48.958;8.284;2023-02-23T03:25:47;100002.25;;;13.49;76.68
30708;BME280;17458;48.958;8.284;2023-02-23T03:29:10;100010.19;;;13.46;76.54
30708;BME280;17458;48.958;8.284;2023-02-23T03:32:24;100010.72;;;13.36;77.42
30708;BME280;17458;48.958;8.284;2023-02-23T03:35:40;100002.63;;;13.60;76.72
30708;BME280;17458;48.958;8.284;2023-02-23T03:39:00;100014.19;;;13.61;76.63
30708;BME280;17458;48.958;8.284;2023-02-23T03:42:12;100015.53;;;13.21;78.38
30708;BME280;17458;48.958;8.284;2023-02-23T03:45:20;100008.50;;;13.23;78.12
30708;BME280;17458;48.958;8.284;2023-02-23T03:48:25;100012.16;;;13.27;77.19
30708;BME280;17458;48.958;8.284;2023-02-23T03:51:31;100013.13;;;13.29;78.02
30708;BME280;17458;48.958;8.284;2023-02-23T03:54:41;100013.06;;;13.27;77.55
30708;BME280;17458;48.958;8.284;2023-02-23T03:57:48;100006.66;;;13.22;78.55
30708;BME280;17458;48.958;8.284;2023-02-23T04:00:55;100000.66;;;13.28;77.59
30708;BME280;17458;48.958;8.284;2023-02-23T04:04:02;99999.13;;;13.36;77.66
30708;BME280;17458;48.958;8.284;2023-02-23T04:07:06;100011.03;;;13.19;78.23
30708;BME280;17458;48.958;8.284;2023-02-23T04:10:11;100012.22;;;13.03;79.43
30708;BME280;17458;48.958;8.284;2023-02-23T04:13:18;100011.38;;;13.05;78.95
30708;BME280;17458;48.958;8.284;2023-02-23T04:16:08;100015.84;;;13.05;79.04
30708;BME280;17458;48.958;8.284;2023-02-23T04:18:53;100006.28;;;13.11;79.11
30708;BME280;17458;48.958;8.284;2023-02-23T04:21:37;100009.63;;;13.06;78.49
30708;BME280;17458;48.958;8.284;2023-02-23T04:24:21;100023.38;;;13.17;78.37
30708;BME280;17458;48.958;8.284;2023-02-23T04:27:06;100022.44;;;13.15;78.32
30708;BME280;17458;48.958;8.284;2023-02-23T04:29:50;100020.53;;;13.37;77.43
30708;BME280;17458;48.958;8.284;2023-02-23T04:32:34;100017.56;;;13.28;77.51
30708;BME280;17458;48.958;8.284;2023-02-23T04:35:18;100019.09;;;13.22;78.08
30708;BME280;17458;48.958;8.284;2023-02-23T04:38:02;100017.81;;;13.10;78.43
30708;BME280;17458;48.958;8.284;2023-02-23T04:40:46;100018.13;;;13.18;78.11
30708;BME280;17458;48.958;8.284;2023-02-23T04:43:30;100018.75;;;13.38;77.22
30708;BME280;17458;48.958;8.284;2023-02-23T04:46:17;100015.69;;;13.26;77.54
30708;BME280;17458;48.958;8.284;2023-02-23T04:49:01;100020.78;;;13.45;77.18
30708;BME280;17458;48.958;8.284;2023-02-23T04:51:46;100017.63;;;13.57;75.99
30708;BME280;17458;48.958;8.284;2023-02-23T04:54:30;100023.75;;;13.54;76.16
30708;BME280;17458;48.958;8.284;2023-02-23T04:57:14;100020.97;;;13.51;76.23
30708;BME280;17458;48.958;8.284;2023-02-23T04:59:58;100017.63;;;13.57;75.88
30708;BME280;17458;48.958;8.284;2023-02-23T05:02:42;100017.28;;;13.46;75.69
30708;BME280;17458;48.958;8.284;2023-02-23T05:05:27;100016.88;;;13.62;75.18
30708;BME280;17458;48.958;8.284;2023-02-23T05:08:11;100015.13;;;13.63;74.96
30708;BME280;17458;48.958;8.284;2023-02-23T05:10:55;100014.91;;;13.55;75.08
30708;BME280;17458;48.958;8.284;2023-02-23T05:13:39;100017.56;;;13.55;75.02
30708;BME280;17458;48.958;8.284;2023-02-23T05:16:23;100016.44;;;13.48;75.10
30708;BME280;17458;48.958;8.284;2023-02-23T05:19:07;100021.09;;;13.54;74.67
30708;BME280;17458;48.958;8.284;2023-02-23T05:21:51;100007.97;;;13.60;74.43
30708;BME280;17458;48.958;8.284;2023-02-23T05:24:34;100018.38;;;13.53;74.38
30708;BME280;17458;48.958;8.284;2023-02-23T05:27:19;100014.19;;;13.61;74.38
30708;BME280;17458;48.958;8.284;2023-02-23T05:30:05;100011.38;;;13.56;74.59
30708;BME280;17458;48.958;8.284;2023-02-23T05:32:50;100013.81;;;13.50;74.74
30708;BME280;17458;48.958;8.284;2023-02-23T05:35:38;100016.38;;;13.45;74.98
30708;BME280;17458;48.958;8.284;2023-02-23T05:38:23;100016.38;;;13.45;74.90
30708;BME280;17458;48.958;8.284;2023-02-23T05:41:09;100010.13;;;13.45;74.70
30708;BME280;17458;48.958;8.284;2023-02-23T05:43:54;100013.47;;;13.39;74.67
30708;BME280;17458;48.958;8.284;2023-02-23T05:46:38;100020.75;;;13.43;74.80
30708;BME280;17458;48.958;8.284;2023-02-23T05:49:22;100015.06;;;13.34;75.07
30708;BME280;17458;48.958;8.284;2023-02-23T05:52:07;100017.66;;;13.31;75.22
30708;BME280;17458;48.958;8.284;2023-02-23T05:54:51;100023.84;;;13.30;75.23
30708;BME280;17458;48.958;8.284;2023-02-23T05:57:38;100012.28;;;13.30;75.29
30708;BME280;17458;48.958;8.284;2023-02-23T06:00:23;100022.22;;;13.35;74.85
30708;BME280;17458;48.958;8.284;2023-02-23T06:03:07;100022.19;;;13.34;75.16
30708;BME280;17458;48.958;8.284;2023-02-23T06:05:53;100022.16;;;13.32;74.84
30708;BME280;17458;48.958;8.284;2023-02-23T06:08:37;100028.06;;;13.24;75.01
30708;BME280;17458;48.958;8.284;2023-02-23T06:11:21;100022.78;;;13.25;75.24
30708;BME280;17458;48.958;8.284;2023-02-23T06:14:05;100023.44;;;13.18;74.98
30708;BME280;17458;48.958;8.284;2023-02-23T06:16:49;100025.34;;;13.22;75.16
30708;BME280;17458;48.958;8.284;2023-02-23T06:19:33;100031.56;;;13.23;74.73
30708;BME280;17458;48.958;8.284;2023-02-23T06:22:20;100026.59;;;13.32;74.18
30708;BME280;17458;48.958;8.284;2023-02-23T06:25:04;100041.34;;;13.22;74.09
30708;BME280;17458;48.958;8.284;2023-02-23T06:27:55;100044.84;;;13.21;74.66
30708;BME280;17458;48.958;8.284;2023-02-23T06:30:40;100043.75;;;13.15;74.28
30708;BME280;17458;48.958;8.284;2023-02-23T06:33:24;100052.66;;;13.15;74.44
30708;BME280;17458;48.958;8.284;2023-02-23T06:36:09;100053.47;;;13.14;74.69
30708;BME280;17458;48.958;8.284;2023-02-23T06:38:56;100059.50;;;13.08;74.99
30708;BME280;17458;48.958;8.284;2023-02-23T06:41:41;100066.63;;;12.84;75.96
30708;BME280;17458;48.958;8.284;2023-02-23T06:44:25;100068.13;;;13.01;75.57
30708;BME280;17458;48.958;8.284;2023-02-23T06:47:09;100071.06;;;13.09;75.60
30708;BME280;17458;48.958;8.284;2023-02-23T06:49:53;100076.50;;;13.12;75.17
30708;BME280;17458;48.958;8.284;2023-02-23T06:52:38;100074.56;;;13.08;75.37
30708;BME280;17458;48.958;8.284;2023-02-23T06:55:22;100076.78;;;13.18;75.27
30708;BME280;17458;48.958;8.284;2023-02-23T06:58:09;100079.09;;;13.34;74.79
30708;BME280;17458;48.958;8.284;2023-02-23T07:00:55;100085.56;;;13.41;74.79
30708;BME280;17458;48.958;8.284;2023-02-23T07:03:40;100082.94;;;13.42;74.53
30708;BME280;17458;48.958;8.284;2023-02-23T07:06:24;100086.72;;;13.49;74.53
30708;BME280;17458;48.958;8.284;2023-02-23T07:09:08;100086.63;;;13.46;74.41
30708;BME280;17458;48.958;8.284;2023-02-23T07:11:52;100086.81;;;13.52;74.35
30708;BME280;17458;48.958;8.284;2023-02-23T07:14:38;100091.47;;;13.58;74.27
30708;BME280;17458;48.958;8.284;2023-02-23T07:17:22;100087.16;;;13.63;74.00
30708;BME280;17458;48.958;8.284;2023-02-23T07:20:10;100085.91;;;13.78;73.78
30708;BME280;17458;48.958;8.284;2023-02-23T07:22:54;100092.31;;;13.83;73.37
30708;BME280;17458;48.958;8.284;2023-02-23T07:25:39;100086.97;;;13.83;73.48
30708;BME280;17458;48.958;8.284;2023-02-23T07:28:23;100094.53;;;13.97;73.24
30708;BME280;17458;48.958;8.284;2023-02-23T07:31:11;100097.19;;;13.97;73.22
30708;BME280;17458;48.958;8.284;2023-02-23T07:33:55;100102.03;;;14.08;73.02
30708;BME280;17458;48.958;8.284;2023-02-23T07:36:39;100101.50;;;14.20;72.86
30708;BME280;17458;48.958;8.284;2023-02-23T07:39:23;100099.31;;;14.35;72.64
30708;BME280;17458;48.958;8.284;2023-02-23T07:42:08;100093.66;;;14.53;72.24
30708;BME280;17458;48.958;8.284;2023-02-23T07:44:52;100099.31;;;14.64;72.18
30708;BME280;17458;48.958;8.284;2023-02-23T07:47:36;100103.06;;;14.70;72.04
30708;BME280;17458;48.958;8.284;2023-02-23T07:50:22;100097.13;;;14.80;71.42
30708;BME280;17458;48.958;8.284;2023-02-23T07:53:06;100107.09;;;14.86;70.76
30708;BME280;17458;48.958;8.284;2023-02-23T07:55:56;100093.94;;;14.94;70.61
30708;BME280;17458;48.958;8.284;2023-02-23T07:58:42;100104.53;;;14.90;70.51
30708;BME280;17458;48.958;8.284;2023-02-23T08:01:27;100097.94;;;15.09;69.98
30708;BME280;17458;48.958;8.284;2023-02-23T08:04:10;100099.97;;;15.18;69.41
30708;BME280;17458;48.958;8.284;2023-02-23T08:06:54;100105.53;;;15.25;69.08
30708;BME280;17458;48.958;8.284;2023-02-23T08:09:38;100100.16;;;15.24;68.95
30708;BME280;17458;48.958;8.284;2023-02-23T08:12:22;100103.53;;;15.18;69.18
30708;BME280;17458;48.958;8.284;2023-02-23T08:15:06;100102.19;;;15.34;68.76
30708;BME280;17458;48.958;8.284;2023-02-23T08:17:50;100107.13;;;15.52;68.24
30708;BME280;17458;48.958;8.284;2023-02-23T08:20:38;100104.63;;;14.94;69.67
30708;BME280;17458;48.958;8.284;2023-02-23T08:23:22;100106.16;;;13.99;74.00
30708;BME280;17458;48.958;8.284;2023-02-23T08:26:06;100106.66;;;14.41;73.01
30708;BME280;17458;48.958;8.284;2023-02-23T08:28:53;100105.16;;;14.80;71.41
30708;BME280;17458;48.958;8.284;2023-02-23T08:31:38;100111.66;;;14.90;70.55
30708;BME280;17458;48.958;8.284;2023-02-23T08:34:22;100109.31;;;15.01;70.82
30708;BME280;17458;48.958;8.284;2023-02-23T08:37:06;100111.41;;;15.12;70.08
30708;BME280;17458;48.958;8.284;2023-02-23T08:39:50;100105.97;;;15.09;69.90
30708;BME280;17458;48.958;8.284;2023-02-23T08:42:34;100104.75;;;14.67;71.39
30708;BME280;17458;48.958;8.284;2023-02-23T08:45:19;100113.56;;;14.94;70.56
30708;BME280;17458;48.958;8.284;2023-02-23T08:48:03;100109.69;;;15.14;70.06
30708;BME280;17458;48.958;8.284;2023-02-23T08:50:48;100112.53;;;15.53;69.32
30708;BME280;17458;48.958;8.284;2023-02-23T08:53:32;100113.97;;;15.74;67.94
30708;BME280;17458;48.958;8.284;2023-02-23T08:56:16;100114.75;;;15.37;69.04
30708;BME280;17458;48.958;8.284;2023-02-23T08:59:00;100112.59;;;14.34;73.01
30708;BME280;17458;48.958;8.284;2023-02-23T09:01:44;100118.19;;;15.33;70.73
30708;BME280;17458;48.958;8.284;2023-02-23T09:04:30;100113.88;;;15.38;69.64
30708;BME280;17458;48.958;8.284;2023-02-23T09:07:16;100118.75;;;15.52;68.69
30708;BME280;17458;48.958;8.284;2023-02-23T09:10:00;100121.78;;;15.65;69.04
30708;BME280;17458;48.958;8.284;2023-02-23T09:12:44;100120.25;;;15.41;68.95
30708;BME280;17458;48.958;8.284;2023-02-23T09:15:29;100123.44;;;15.95;66.87
30708;BME280;17458;48.958;8.284;2023-02-23T09:18:13;100125.13;;;15.56;68.72
30708;BME280;17458;48.958;8.284;2023-02-23T09:20:57;100117.16;;;15.93;67.97
30708;BME280;17458;48.958;8.284;2023-02-23T09:23:41;100131.63;;;16.00;67.84
30708;BME280;17458;48.958;8.284;2023-02-23T09:26:25;100123.75;;;16.08;67.47
30708;BME280;17458;48.958;8.284;2023-02-23T09:29:12;100120.56;;;16.24;66.47
30708;BME280;17458;48.958;8.284;2023-02-23T09:31:56;100118.22;;;16.02;66.58
30708;BME280;17458;48.958;8.284;2023-02-23T09:34:40;100122.00;;;16.10;66.24
30708;BME280;17458;48.958;8.284;2023-02-23T09:37:25;100122.38;;;16.25;65.67
30708;BME280;17458;48.958;8.284;2023-02-23T09:40:09;100120.59;;;16.25;65.35
30708;BME280;17458;48.958;8.284;2023-02-23T09:42:58;100121.28;;;16.17;67.05
30708;BME280;17458;48.958;8.284;2023-02-23T09:45:52;100128.44;;;16.18;65.98
30708;BME280;17458;48.958;8.284;2023-02-23T09:48:38;100126.88;;;16.26;65.42
30708;BME280;17458;48.958;8.284;2023-02-23T09:51:23;100127.53;;;16.17;65.19
30708;BME280;17458;48.958;8.284;2023-02-23T09:54:10;100133.50;;;16.06;65.63
30708;BME280;17458;48.958;8.284;2023-02-23T09:56:55;100132.50;;;16.01;65.42
30708;BME280;17458;48.958;8.284;2023-02-23T09:59:41;100132.41;;;16.34;65.31
30708;BME280;17458;48.958;8.284;2023-02-23T10:02:33;100134.44;;;16.45;65.40
30708;BME280;17458;48.958;8.284;2023-02-23T10:05:22;100135.19;;;16.38;65.35
30708;BME280;17458;48.958;8.284;2023-02-23T10:08:20;100139.56;;;16.35;65.12
30708;BME280;17458;48.958;8.284;2023-02-23T10:14:51;100143.22;;;16.38;64.35
30708;BME280;17458;48.958;8.284;2023-02-23T10:18:03;100139.13;;;16.16;64.96
30708;BME280;17458;48.958;8.284;2023-02-23T10:21:01;100140.78;;;16.10;64.73
30708;BME280;17458;48.958;8.284;2023-02-23T10:24:17;100137.00;;;16.39;64.96
30708;BME280;17458;48.958;8.284;2023-02-23T10:27:14;100133.25;;;16.69;64.11
30708;BME280;17458;48.958;8.284;2023-02-23T10:30:00;100138.44;;;16.62;63.69
30708;BME280;17458;48.958;8.284;2023-02-23T10:33:06;100145.28;;;16.89;63.54
30708;BME280;17458;48.958;8.284;2023-02-23T10:35:59;100147.69;;;15.66;66.47
30708;BME280;17458;48.958;8.284;2023-02-23T10:38:52;100144.75;;;15.91;66.14
30708;BME280;17458;48.958;8.284;2023-02-23T10:41:36;100144.31;;;16.09;65.27
30708;BME280;17458;48.958;8.284;2023-02-23T10:44:23;100147.84;;;16.08;64.61
30708;BME280;17458;48.958;8.284;2023-02-23T10:47:13;100152.31;;;16.07;65.31
30708;BME280;17458;48.958;8.284;2023-02-23T10:49:59;100152.00;;;15.29;67.20
30708;BME280;17458;48.958;8.284;2023-02-23T10:52:49;100149.22;;;14.95;67.55
30708;BME280;17458;48.958;8.284;2023-02-23T10:55:34;100145.78;;;15.30;67.31
30708;BME280;17458;48.958;8.284;2023-02-23T10:58:18;100144.19;;;15.37;66.29
30708;BME280;17458;48.958;8.284;2023-02-23T11:01:04;100148.09;;;15.49;66.26
30708;BME280;17458;48.958;8.284;2023-02-23T11:03:49;100147.84;;;15.73;65.77
30708;BME280;17458;48.958;8.284;2023-02-23T11:06:35;100147.97;;;16.12;65.15
30708;BME280;17458;48.958;8.284;2023-02-23T11:09:25;100144.97;;;16.36;63.82
30708;BME280;17458;48.958;8.284;2023-02-23T11:12:38;100143.34;;;16.44;63.44
30708;BME280;17458;48.958;8.284;2023-02-23T11:15:31;100150.38;;;16.38;64.88
30708;BME280;17458;48.958;8.284;2023-02-23T11:18:23;100141.59;;;16.07;64.66
30708;BME280;17458;48.958;8.284;2023-02-23T11:21:12;100143.91;;;16.28;63.85
30708;BME280;17458;48.958;8.284;2023-02-23T11:26:58;100135.91;;;16.31;63.95
30708;BME280;17458;48.958;8.284;2023-02-23T11:29:47;100128.78;;;16.71;62.76
30708;BME280;17458;48.958;8.284;2023-02-23T11:32:33;100128.72;;;16.30;62.71
30708;BME280;17458;48.958;8.284;2023-02-23T11:38:21;100120.28;;;16.12;63.51
30708;BME280;17458;48.958;8.284;2023-02-23T11:41:17;100121.50;;;16.26;64.83
30708;BME280;17458;48.958;8.284;2023-02-23T11:44:03;100115.06;;;16.18;64.14
30708;BME280;17458;48.958;8.284;2023-02-23T11:46:50;100120.72;;;16.31;63.72
30708;BME280;17458;48.958;8.284;2023-02-23T11:49:35;100118.66;;;16.59;62.93
30708;BME280;17458;48.958;8.284;2023-02-23T11:52:21;100116.84;;;16.58;62.48
30708;BME280;17458;48.958;8.284;2023-02-23T11:55:15;100106.78;;;16.87;60.87
30708;BME280;17458;48.958;8.284;2023-02-23T11:58:28;100108.72;;;16.14;62.92
30708;BME280;17458;48.958;8.284;2023-02-23T12:01:42;100102.75;;;16.26;63.86
30708;BME280;17458;48.958;8.284;2023-02-23T12:07:36;100104.75;;;16.75;62.13
30708;BME280;17458;48.958;8.284;2023-02-23T12:10:43;100103.00;;;16.37;62.35
30708;BME280;17458;48.958;8.284;2023-02-23T12:13:30;100094.28;;;16.87;61.79
30708;BME280;17458;48.958;8.284;2023-02-23T12:16:24;100100.22;;;16.73;61.92
30708;BME280;17458;48.958;8.284;2023-02-23T12:19:31;100096.41;;;16.22;63.37
30708;BME280;17458;48.958;8.284;2023-02-23T12:22:28;100094.25;;;16.86;61.68
30708;BME280;17458;48.958;8.284;2023-02-23T12:25:34;100091.72;;;16.92;61.63
30708;BME280;17458;48.958;8.284;2023-02-23T12:28:35;100088.16;;;16.93;61.75
30708;BME280;17458;48.958;8.284;2023-02-23T12:31:36;100101.28;;;16.79;60.85
30708;BME280;17458;48.958;8.284;2023-02-23T12:34:42;100093.56;;;16.94;61.53
30708;BME280;17458;48.958;8.284;2023-02-23T12:37:39;100085.06;;;17.18;61.07
30708;BME280;17458;48.958;8.284;2023-02-23T12:40:28;100085.47;;;16.93;61.79
30708;BME280;17458;48.958;8.284;2023-02-23T12:43:31;100096.47;;;17.07;60.46
30708;BME280;17458;48.958;8.284;2023-02-23T12:46:38;100089.50;;;16.73;61.45
30708;BME280;17458;48.958;8.284;2023-02-23T12:49:36;100077.22;;;16.82;62.01
30708;BME280;17458;48.958;8.284;2023-02-23T12:52:28;100078.34;;;17.42;60.40
30708;BME280;17458;48.958;8.284;2023-02-23T12:55:20;100072.97;;;17.42;60.18
30708;BME280;17458;48.958;8.284;2023-02-23T13:01:07;100074.41;;;17.21;61.36
30708;BME280;17458;48.958;8.284;2023-02-23T13:04:30;100076.72;;;17.50;60.18
30708;BME280;17458;48.958;8.284;2023-02-23T13:10:55;100074.09;;;17.06;60.45
30708;BME280;17458;48.958;8.284;2023-02-23T13:13:51;100071.75;;;16.78;60.90
30708;BME280;17458;48.958;8.284;2023-02-23T13:16:43;100069.38;;;16.51;60.50
30708;BME280;17458;48.958;8.284;2023-02-23T13:19:47;100068.34;;;16.86;59.91
30708;BME280;17458;48.958;8.284;2023-02-23T13:22:49;100068.56;;;16.55;61.47
30708;BME280;17458;48.958;8.284;2023-02-23T13:31:42;100067.03;;;16.66;62.40
30708;BME280;17458;48.958;8.284;2023-02-23T13:34:31;100067.44;;;16.84;63.05
30708;BME280;17458;48.958;8.284;2023-02-23T13:37:17;100069.69;;;16.64;63.63
30708;BME280;17458;48.958;8.284;2023-02-23T13:40:27;100067.50;;;16.48;65.25
30708;BME280;17458;48.958;8.284;2023-02-23T13:43:17;100060.78;;;16.65;64.64
30708;BME280;17458;48.958;8.284;2023-02-23T13:46:16;100067.13;;;16.71;63.40
30708;BME280;17458;48.958;8.284;2023-02-23T13:51:56;100059.09;;;16.31;65.76
30708;BME280;17458;48.958;8.284;2023-02-23T13:54:54;100060.47;;;16.53;65.25
30708;BME280;17458;48.958;8.284;2023-02-23T13:57:42;100061.50;;;16.60;65.63
30708;BME280;17458;48.958;8.284;2023-02-23T14:00:26;100052.94;;;15.97;66.49
30708;BME280;17458;48.958;8.284;2023-02-23T14:03:27;100050.41;;;16.43;66.17
30708;BME280;17458;48.958;8.284;2023-02-23T14:06:14;100054.69;;;15.94;66.21
30708;BME280;17458;48.958;8.284;2023-02-23T14:09:10;100060.38;;;16.49;64.99
30708;BME280;17458;48.958;8.284;2023-02-23T14:12:15;100050.25;;;16.76;64.83
30708;BME280;17458;48.958;8.284;2023-02-23T14:30:14;100056.06;;;16.55;65.10
30708;BME280;17458;48.958;8.284;2023-02-23T14:33:00;100061.69;;;16.28;66.45
30708;BME280;17458;48.958;8.284;2023-02-23T14:35:46;100050.88;;;16.22;67.44
30708;BME280;17458;48.958;8.284;2023-02-23T14:38:35;100058.75;;;16.57;65.61
30708;BME280;17458;48.958;8.284;2023-02-23T14:41:23;100059.97;;;16.71;65.60
30708;BME280;17458;48.958;8.284;2023-02-23T14:44:14;100049.50;;;16.43;65.28
30708;BME280;17458;48.958;8.284;2023-02-23T14:47:12;100050.16;;;16.72;64.54
30708;BME280;17458;48.958;8.284;2023-02-23T14:49:58;100043.88;;;16.71;64.10
30708;BME280;17458;48.958;8.284;2023-02-23T14:52:44;100051.94;;;16.71;63.75
30708;BME280;17458;48.958;8.284;2023-02-23T14:55:30;100054.53;;;16.26;65.11
30708;BME280;17458;48.958;8.284;2023-02-23T14:58:30;100057.63;;;16.46;65.03
30708;BME280;17458;48.958;8.284;2023-02-23T15:01:38;100052.44;;;16.14;65.42
30708;BME280;17458;48.958;8.284;2023-02-23T15:04:25;100047.78;;;16.45;64.82
30708;BME280;17458;48.958;8.284;2023-02-23T15:07:19;100053.03;;;16.01;66.27
30708;BME280;17458;48.958;8.284;2023-02-23T15:10:27;100052.78;;;16.28;66.47
30708;BME280;17458;48.958;8.284;2023-02-23T15:13:35;100061.81;;;16.33;66.89
30708;BME280;17458;48.958;8.284;2023-02-23T15:16:31;100050.97;;;16.66;65.84
30708;BME280;17458;48.958;8.284;2023-02-23T15:19:19;100062.50;;;16.63;66.23
30708;BME280;17458;48.958;8.284;2023-02-23T15:22:06;100061.97;;;16.80;65.08
30708;BME280;17458;48.958;8.284;2023-02-23T15:24:50;100053.31;;;16.12;66.15
30708;BME280;17458;48.958;8.284;2023-02-23T15:27:37;100061.44;;;16.55;65.41
30708;BME280;17458;48.958;8.284;2023-02-23T15:30:30;100053.41;;;16.58;64.66
30708;BME280;17458;48.958;8.284;2023-02-23T15:33:17;100052.19;;;16.82;63.50
30708;BME280;17458;48.958;8.284;2023-02-23T15:36:27;100053.38;;;16.99;62.34
30708;BME280;17458;48.958;8.284;2023-02-23T15:39:17;100054.22;;;16.53;63.40
30708;BME280;17458;48.958;8.284;2023-02-23T15:42:05;100062.44;;;16.62;63.52
30708;BME280;17458;48.958;8.284;2023-02-23T15:44:59;100062.06;;;16.86;62.57
30708;BME280;17458;48.958;8.284;2023-02-23T15:47:44;100056.72;;;16.87;63.11
30708;BME280;17458;48.958;8.284;2023-02-23T15:50:33;100066.66;;;16.91;63.14
30708;BME280;17458;48.958;8.284;2023-02-23T15:56:15;100057.22;;;16.67;61.89
30708;BME280;17458;48.958;8.284;2023-02-23T15:59:10;100061.47;;;16.58;63.94
30708;BME280;17458;48.958;8.284;2023-02-23T16:01:58;100058.06;;;16.64;63.57
30708;BME280;17458;48.958;8.284;2023-02-23T16:04:42;100066.06;;;16.62;63.97
30708;BME280;17458;48.958;8.284;2023-02-23T16:07:38;100066.13;;;16.65;63.10
30708;BME280;17458;48.958;8.284;2023-02-23T16:10:24;100061.69;;;16.66;63.39
30708;BME280;17458;48.958;8.284;2023-02-23T16:13:12;100067.44;;;16.45;64.04
30708;BME280;17458;48.958;8.284;2023-02-23T16:15:58;100064.19;;;16.19;65.17